createdAt,value
2022-09-23T00:02:26.000Z,14.43
2022-09-23T00:04:59.491Z,14.02
2022-09-23T00:07:33.322Z,13.70
2022-09-23T00:12:42.297Z,15.00
2022-09-23T00:15:16.330Z,16.55
2022-09-23T00:17:49.793Z,14.07
2022-09-23T00:20:23.297Z,15.02
2022-09-23T00:22:57.886Z,15.63
2022-09-23T00:25:32.757Z,14.27
2022-09-23T00:28:06.330Z,13.30
2022-09-23T00:30:42.437Z,12.40
2022-09-23T00:33:15.814Z,12.65
2022-09-23T00:35:49.942Z,13.63
2022-09-23T00:38:23.296Z,16.33
2022-09-23T00:40:58.506Z,11.07
2022-09-23T00:43:40.207Z,11.63
2022-09-23T00:46:16.835Z,10.07
2022-09-23T00:48:56.930Z,12.80
2022-09-23T00:51:35.502Z,9.30
2022-09-23T00:54:09.728Z,13.45
2022-09-23T00:56:44.770Z,11.73
2022-09-23T00:59:18.746Z,11.45
2022-09-23T01:01:55.738Z,12.07
2022-09-23T01:04:31.225Z,10.95
2022-09-23T01:07:04.996Z,12.43
2022-09-23T01:12:22.867Z,8.57
2022-09-23T01:15:07.564Z,15.68
2022-09-23T01:17:49.374Z,11.07
2022-09-23T01:21:04.153Z,13.55
2022-09-23T01:24:09.721Z,12.38
2022-09-23T01:27:13.198Z,11.13
2022-09-23T01:30:21.419Z,11.75
2022-09-23T01:33:11.325Z,9.75
2022-09-23T01:35:56.969Z,14.70
2022-09-23T01:38:37.180Z,12.93
2022-09-23T01:41:24.878Z,11.07
2022-09-23T01:44:06.127Z,13.68
2022-09-23T01:46:45.713Z,12.85
2022-09-23T01:49:24.496Z,14.73
2022-09-23T01:52:05.524Z,12.23
2022-09-23T01:54:45.581Z,17.83
2022-09-23T01:57:25.750Z,16.95
2022-09-23T02:00:05.836Z,20.55
2022-09-23T02:02:50.459Z,17.80
2022-09-23T02:05:30.815Z,19.95
2022-09-23T02:08:10.438Z,20.38
2022-09-23T02:10:50.393Z,24.67
2022-09-23T02:13:28.903Z,17.80
2022-09-23T02:16:09.853Z,19.48
2022-09-23T02:18:47.568Z,16.48
2022-09-23T02:21:25.839Z,17.75
2022-09-23T02:24:05.606Z,19.17
2022-09-23T02:26:46.708Z,15.70
2022-09-23T02:29:22.696Z,17.38
2022-09-23T02:32:01.707Z,16.52
2022-09-23T02:34:46.895Z,20.30
2022-09-23T02:37:29.039Z,17.98
2022-09-23T02:40:13.149Z,15.55
2022-09-23T02:45:24.204Z,16.38
2022-09-23T02:48:03.889Z,14.27
2022-09-23T02:50:39.424Z,15.63
2022-09-23T02:53:15.921Z,17.60
2022-09-23T02:55:49.901Z,12.93
2022-09-23T02:58:23.544Z,13.65
2022-09-23T03:01:06.287Z,13.05
2022-09-23T03:03:46.077Z,18.08
2022-09-23T03:06:38.707Z,16.13
2022-09-23T03:09:20.819Z,14.27
2022-09-23T03:12:06.776Z,13.88
2022-09-23T03:14:49.606Z,14.88
2022-09-23T03:17:31.469Z,12.63
2022-09-23T03:20:09.495Z,15.40
2022-09-23T03:22:48.054Z,15.30
2022-09-23T03:25:25.983Z,14.38
2022-09-23T03:28:02.020Z,16.48
2022-09-23T03:30:36.845Z,14.75
2022-09-23T03:33:15.657Z,13.18
2022-09-23T03:36:11.722Z,15.20
2022-09-23T03:38:51.189Z,18.13
2022-09-23T03:41:31.384Z,15.25
2022-09-23T03:44:05.140Z,17.95
2022-09-23T03:46:39.344Z,26.85
2022-09-23T03:49:18.777Z,24.77
2022-09-23T03:51:52.412Z,22.60
2022-09-23T03:54:28.104Z,21.98
2022-09-23T03:57:04.200Z,23.27
2022-09-23T03:59:37.639Z,20.55
2022-09-23T04:02:12.095Z,35.45
2022-09-23T04:04:45.787Z,61.97
2022-09-23T04:07:19.858Z,79.43
2022-09-23T04:09:53.598Z,31.95
2022-09-23T04:15:01.876Z,23.35
2022-09-23T04:17:35.724Z,27.17
2022-09-23T04:22:42.605Z,31.48
2022-09-23T04:25:16.143Z,41.25
2022-09-23T04:27:51.179Z,64.40
2022-09-23T04:30:24.601Z,67.57
2022-09-23T04:32:58.058Z,56.08
2022-09-23T04:35:31.464Z,62.38
2022-09-23T04:38:05.196Z,89.55
2022-09-23T04:40:38.663Z,75.20
2022-09-23T04:43:13.735Z,73.78
2022-09-23T04:45:47.340Z,55.83
2022-09-23T04:48:20.778Z,38.55
2022-09-23T04:50:54.459Z,30.77
2022-09-23T04:53:28.811Z,70.72
2022-09-23T04:56:03.645Z,49.83
2022-09-23T04:58:38.686Z,77.70
2022-09-23T05:01:14.290Z,45.00
2022-09-23T05:03:48.333Z,48.45
2022-09-23T05:06:22.692Z,41.83
2022-09-23T05:08:57.262Z,54.42
2022-09-23T05:11:32.641Z,60.42
2022-09-23T05:14:07.543Z,58.30
2022-09-23T05:16:41.344Z,25.60
2022-09-23T05:19:15.625Z,50.45
2022-09-23T05:21:49.025Z,53.45
2022-09-23T05:24:25.571Z,34.75
2022-09-23T05:26:59.007Z,42.60
2022-09-23T05:29:34.090Z,44.72
2022-09-23T05:32:08.177Z,32.50
2022-09-23T05:34:41.728Z,74.70
2022-09-23T05:37:15.246Z,71.10
2022-09-23T05:39:48.773Z,40.95
2022-09-23T05:42:22.338Z,55.38
2022-09-23T05:44:57.370Z,29.17
2022-09-23T05:47:30.966Z,49.85
2022-09-23T05:50:04.528Z,47.92
2022-09-23T05:52:37.997Z,58.65
2022-09-23T05:55:11.852Z,58.35
2022-09-23T06:00:20.442Z,73.80
2022-09-23T06:02:54.099Z,92.43
2022-09-23T06:05:27.615Z,80.75
2022-09-23T06:08:01.146Z,51.38
2022-09-23T06:10:38.123Z,52.97
2022-09-23T06:13:11.836Z,58.17
2022-09-23T06:15:46.984Z,76.53
2022-09-23T06:18:20.467Z,60.88
2022-09-23T06:20:53.950Z,69.47
2022-09-23T06:23:27.465Z,40.75
2022-09-23T06:26:05.235Z,37.85
2022-09-23T06:28:40.546Z,45.70
2022-09-23T06:31:17.428Z,61.53
2022-09-23T06:33:54.762Z,56.25
2022-09-23T06:36:42.411Z,52.85
2022-09-23T06:39:17.860Z,81.50
2022-09-23T06:41:51.391Z,55.80
2022-09-23T06:44:24.896Z,32.70
2022-09-23T06:47:03.891Z,20.77
2022-09-23T06:49:37.537Z,36.00
2022-09-23T06:52:11.135Z,26.95
2022-09-23T06:54:44.667Z,23.63
2022-09-23T06:57:18.145Z,23.17
2022-09-23T06:59:51.774Z,28.65
2022-09-23T07:02:26.868Z,22.65
2022-09-23T07:05:00.467Z,20.48
2022-09-23T07:07:33.967Z,20.75
2022-09-23T07:10:08.789Z,21.05
2022-09-23T07:12:43.064Z,21.63
2022-09-23T07:15:16.987Z,27.40
2022-09-23T07:17:51.826Z,26.50
2022-09-23T07:20:25.292Z,23.70
2022-09-23T07:22:59.075Z,22.98
2022-09-23T07:28:08.081Z,23.25
2022-09-23T07:30:55.338Z,28.67
2022-09-23T07:33:34.808Z,27.77
2022-09-23T07:36:10.629Z,26.77
2022-09-23T07:38:45.659Z,25.58
2022-09-23T07:41:20.357Z,27.95
2022-09-23T07:43:55.524Z,31.35
2022-09-23T07:46:31.259Z,26.83
2022-09-23T07:49:07.163Z,31.88
2022-09-23T07:51:43.143Z,26.88
2022-09-23T07:54:18.480Z,25.58
2022-09-23T07:56:52.061Z,26.83
2022-09-23T07:59:27.169Z,27.75
2022-09-23T08:02:00.914Z,26.88
2022-09-23T08:07:09.494Z,29.27
2022-09-23T08:09:44.992Z,30.67
2022-09-23T08:12:19.758Z,26.02
2022-09-23T08:14:53.387Z,28.08
2022-09-23T08:17:27.112Z,33.50
2022-09-23T08:22:35.348Z,21.48
2022-09-23T08:27:43.753Z,22.42
2022-09-23T08:30:17.458Z,23.38
2022-09-23T08:35:26.355Z,18.65
2022-09-23T08:37:59.899Z,20.40
2022-09-23T08:43:09.549Z,15.85
2022-09-23T08:45:45.159Z,14.25
2022-09-23T08:48:27.330Z,14.77
2022-09-23T08:51:06.189Z,13.65
2022-09-23T08:53:40.539Z,14.40
2022-09-23T08:56:17.389Z,12.10
2022-09-23T08:59:01.464Z,11.63
2022-09-23T09:01:43.242Z,12.00
2022-09-23T09:04:20.282Z,9.95
2022-09-23T09:07:24.551Z,14.18
2022-09-23T09:09:59.762Z,9.95
2022-09-23T09:12:42.050Z,10.93
2022-09-23T09:15:17.853Z,10.68
2022-09-23T09:18:01.448Z,10.60
2022-09-23T09:20:50.110Z,12.60
2022-09-23T09:23:29.353Z,11.20
2022-09-23T09:26:04.166Z,7.88
2022-09-23T09:28:44.384Z,9.55
2022-09-23T09:31:25.565Z,8.10
2022-09-23T09:34:03.916Z,6.68
2022-09-23T09:36:43.571Z,6.05
2022-09-23T09:39:21.823Z,6.13
2022-09-23T09:41:59.758Z,6.67
2022-09-23T09:44:45.063Z,5.03
2022-09-23T09:47:29.827Z,3.75
2022-09-23T09:50:07.770Z,6.40
2022-09-23T09:52:43.296Z,4.20
2022-09-23T09:55:28.614Z,2.63
2022-09-23T09:58:06.048Z,3.22
2022-09-23T10:00:44.327Z,1.67
2022-09-23T10:03:38.782Z,1.88
2022-09-23T10:06:18.243Z,1.70
2022-09-23T10:09:13.937Z,2.25
2022-09-23T10:12:12.210Z,2.15
2022-09-23T10:14:46.517Z,5.30
2022-09-23T10:17:22.594Z,2.40
2022-09-23T10:20:00.480Z,2.85
2022-09-23T10:22:39.880Z,5.75
2022-09-23T10:25:20.823Z,4.07
2022-09-23T10:27:55.736Z,3.88
2022-09-23T10:30:29.876Z,2.95
2022-09-23T10:33:03.773Z,2.60
2022-09-23T10:35:37.551Z,2.88
2022-09-23T10:38:12.024Z,2.33
2022-09-23T10:41:16.902Z,2.45
2022-09-23T10:44:22.349Z,4.30
2022-09-23T10:47:07.478Z,4.03
2022-09-23T10:50:18.400Z,7.85
2022-09-23T10:53:18.417Z,4.22
2022-09-23T10:56:17.036Z,5.45
2022-09-23T10:59:43.648Z,6.15
2022-09-23T11:02:34.546Z,2.72
2022-09-23T11:05:32.961Z,3.33
2022-09-23T11:08:19.647Z,2.78
2022-09-23T11:11:08.961Z,3.47
2022-09-23T11:14:01.200Z,1.92
2022-09-23T11:16:51.079Z,2.28
2022-09-23T11:19:46.536Z,2.75
2022-09-23T11:22:38.106Z,3.58
2022-09-23T11:25:36.306Z,1.83
2022-09-23T11:28:34.978Z,4.50
2022-09-23T11:31:20.584Z,1.80
2022-09-23T11:34:09.948Z,3.28
2022-09-23T11:36:51.248Z,1.73
2022-09-23T11:39:34.009Z,2.35
2022-09-23T11:42:15.561Z,3.65
2022-09-23T11:44:58.208Z,3.28
2022-09-23T11:47:39.968Z,2.22
2022-09-23T11:50:21.079Z,2.77
2022-09-23T11:53:02.242Z,1.98
2022-09-23T11:55:54.082Z,2.10
2022-09-23T11:58:36.620Z,1.90
2022-09-23T12:01:15.964Z,4.80
2022-09-23T12:03:55.032Z,2.55
2022-09-23T12:06:38.274Z,14.70
2022-09-23T12:09:35.714Z,2.92
2022-09-23T12:12:26.854Z,3.83
2022-09-23T12:15:07.957Z,4.78
2022-09-23T12:18:18.381Z,1.92
2022-09-23T12:24:24.904Z,3.38
2022-09-23T12:27:06.247Z,2.03
2022-09-23T12:29:41.940Z,1.80
2022-09-23T12:32:19.390Z,5.85
2022-09-23T12:34:54.552Z,1.70
2022-09-23T12:37:33.544Z,2.13
2022-09-23T12:40:20.222Z,2.55
2022-09-23T12:42:53.856Z,1.90
2022-09-23T12:45:40.779Z,1.90
2022-09-23T12:48:44.450Z,2.17
2022-09-23T12:51:26.208Z,4.05
2022-09-23T12:54:23.819Z,2.33
2022-09-23T12:57:06.973Z,2.45
2022-09-23T12:59:58.830Z,12.82
2022-09-23T13:02:36.424Z,2.22
2022-09-23T13:05:39.961Z,3.00
2022-09-23T13:08:18.301Z,2.90
2022-09-23T13:10:58.635Z,2.10
2022-09-23T13:13:38.276Z,2.80
2022-09-23T13:16:14.552Z,2.75
2022-09-23T13:18:58.932Z,5.15
2022-09-23T13:22:01.652Z,2.55
2022-09-23T13:24:43.804Z,2.78
2022-09-23T13:27:24.096Z,2.45
2022-09-23T13:30:05.686Z,3.92
2022-09-23T13:32:46.231Z,2.25
2022-09-23T13:35:27.815Z,3.30
2022-09-23T13:38:12.209Z,6.85
2022-09-23T13:40:46.496Z,2.15
2022-09-23T13:43:24.616Z,2.90
2022-09-23T13:46:00.918Z,4.10
2022-09-23T13:48:34.583Z,3.35
2022-09-23T13:51:13.842Z,2.58
2022-09-23T13:53:53.517Z,2.10
2022-09-23T13:56:28.826Z,4.00
2022-09-23T13:59:21.769Z,1.92
2022-09-23T14:02:06.842Z,1.75
2022-09-23T14:04:40.482Z,1.08
2022-09-23T14:07:16.683Z,3.15
2022-09-23T14:09:53.321Z,2.47
2022-09-23T14:12:26.970Z,1.70
2022-09-23T14:15:00.515Z,1.15
2022-09-23T14:20:16.073Z,12.38
2022-09-23T14:22:49.840Z,5.03
2022-09-23T14:25:23.372Z,0.98
2022-09-23T14:28:01.646Z,1.58
2022-09-23T14:30:36.386Z,1.40
2022-09-23T14:33:15.992Z,1.98
2022-09-23T14:35:52.664Z,1.13
2022-09-23T14:38:46.207Z,1.50
2022-09-23T14:41:25.873Z,3.42
2022-09-23T14:44:01.576Z,2.33
2022-09-23T14:46:38.246Z,2.20
2022-09-23T14:49:18.773Z,1.92
2022-09-23T14:51:58.461Z,7.57
2022-09-23T14:54:36.167Z,3.80
2022-09-23T14:57:33.701Z,3.70
2022-09-23T15:00:16.957Z,2.15
2022-09-23T15:03:00.194Z,3.30
2022-09-23T15:05:42.330Z,1.10
2022-09-23T15:08:20.302Z,2.55
2022-09-23T15:10:54.462Z,2.13
2022-09-23T15:13:31.400Z,1.63
2022-09-23T15:16:05.889Z,2.03
2022-09-23T15:18:46.165Z,11.93
2022-09-23T15:21:23.414Z,2.40
2022-09-23T15:23:58.732Z,2.30
2022-09-23T15:26:48.804Z,1.98
2022-09-23T15:29:23.099Z,1.92
2022-09-23T15:31:56.650Z,3.45
2022-09-23T15:39:39.051Z,5.38
2022-09-23T15:42:12.788Z,3.80
2022-09-23T15:44:46.281Z,2.45
2022-09-23T15:47:21.867Z,2.33
2022-09-23T15:49:57.989Z,3.38
2022-09-23T15:52:32.813Z,3.47
2022-09-23T15:55:22.757Z,9.57
2022-09-23T15:57:58.739Z,13.50
2022-09-23T16:00:32.239Z,11.43
2022-09-23T16:03:06.798Z,8.45
2022-09-23T16:05:41.378Z,6.47
2022-09-23T16:08:23.516Z,3.85
2022-09-23T16:10:58.052Z,4.80
2022-09-23T16:13:31.570Z,6.88
2022-09-23T16:16:06.227Z,4.35
2022-09-23T16:23:38.979Z,5.18
2022-09-23T16:26:17.811Z,6.75
2022-09-23T16:28:52.892Z,6.57
2022-09-23T16:31:29.807Z,6.90
2022-09-23T16:34:03.546Z,10.55
2022-09-23T16:39:16.037Z,13.27
2022-09-23T16:41:50.051Z,9.77
2022-09-23T16:44:23.643Z,17.70
2022-09-23T16:46:57.851Z,13.50
2022-09-23T16:49:31.460Z,9.82
2022-09-23T16:52:05.533Z,6.60
2022-09-23T16:54:42.321Z,10.35
2022-09-23T16:57:16.014Z,11.38
2022-09-23T17:02:57.643Z,11.10
2022-09-23T17:05:31.243Z,14.57
2022-09-23T17:08:07.958Z,17.05
2022-09-23T17:10:43.497Z,19.88
2022-09-23T17:13:17.754Z,24.30
2022-09-23T17:15:51.286Z,20.17
2022-09-23T17:18:25.041Z,24.55
2022-09-23T17:21:00.866Z,28.17
2022-09-23T17:23:35.774Z,37.13
2022-09-23T17:26:12.638Z,27.60
2022-09-23T17:28:46.153Z,44.05
2022-09-23T17:31:19.938Z,52.15
2022-09-23T17:33:54.495Z,49.00
2022-09-23T17:36:28.400Z,39.53
2022-09-23T17:39:02.187Z,50.83
2022-09-23T17:41:37.592Z,45.60
2022-09-23T17:44:11.743Z,43.10
2022-09-23T17:46:45.420Z,45.05
2022-09-23T17:49:19.163Z,51.90
2022-09-23T17:54:27.294Z,42.70
2022-09-23T17:57:02.474Z,43.13
2022-09-23T17:59:39.139Z,41.92
2022-09-23T18:02:15.657Z,37.17
2022-09-23T18:04:49.884Z,42.25
2022-09-23T18:07:23.841Z,39.42
2022-09-23T18:09:57.837Z,48.08
2022-09-23T18:12:33.134Z,47.53
2022-09-23T18:15:07.577Z,45.75
2022-09-23T18:17:42.150Z,41.88
2022-09-23T18:20:16.445Z,46.42
2022-09-23T18:22:50.303Z,47.58
2022-09-23T18:25:38.797Z,57.40
2022-09-23T18:28:14.841Z,50.22
2022-09-23T18:30:54.706Z,53.45
2022-09-23T18:33:28.656Z,46.83
2022-09-23T18:36:02.632Z,54.05
2022-09-23T18:38:37.462Z,48.60
2022-09-23T18:41:11.255Z,49.65
2022-09-23T18:46:24.097Z,59.35
2022-09-23T18:49:16.223Z,71.57
2022-09-23T18:51:52.517Z,63.85
2022-09-23T18:54:27.969Z,74.72
2022-09-23T18:57:02.255Z,63.33
2022-09-23T18:59:38.415Z,56.63
2022-09-23T19:02:12.925Z,52.30
2022-09-23T19:04:47.876Z,53.55
2022-09-23T19:07:22.222Z,53.20
2022-09-23T19:09:56.230Z,52.67
2022-09-23T19:12:30.381Z,59.30
2022-09-23T19:15:05.969Z,58.85
2022-09-23T19:17:39.655Z,56.53
2022-09-23T19:22:48.988Z,61.90
2022-09-23T19:25:23.369Z,53.35
2022-09-23T19:27:57.412Z,59.85
2022-09-23T19:33:06.639Z,60.35
2022-09-23T19:35:48.788Z,61.67
2022-09-23T19:38:22.734Z,56.70
2022-09-23T19:40:58.162Z,54.88
2022-09-23T19:43:32.007Z,51.92
2022-09-23T19:48:41.698Z,54.33
2022-09-23T19:51:16.947Z,59.70
2022-09-23T19:53:51.546Z,56.17
2022-09-23T19:56:25.895Z,58.65
2022-09-23T19:59:00.575Z,57.08
2022-09-23T20:01:36.577Z,57.92
2022-09-23T20:04:11.626Z,55.38
2022-09-23T20:06:46.214Z,58.03
2022-09-23T20:09:20.124Z,50.63
2022-09-23T20:11:53.725Z,52.47
2022-09-23T20:14:27.375Z,56.95
2022-09-23T20:17:02.578Z,53.45
2022-09-23T20:19:36.717Z,55.10
2022-09-23T20:22:33.208Z,58.53
2022-09-23T20:25:13.281Z,58.80
2022-09-23T20:27:52.723Z,68.63
2022-09-23T20:30:26.234Z,63.88
2022-09-23T20:33:01.206Z,73.28
2022-09-23T20:35:34.752Z,63.58
2022-09-23T20:38:08.357Z,71.18
2022-09-23T20:40:42.038Z,67.45
2022-09-23T20:43:16.276Z,72.30
2022-09-23T20:45:51.716Z,77.90
2022-09-23T20:48:26.707Z,87.05
2022-09-23T20:51:03.356Z,80.70
2022-09-23T20:53:36.821Z,84.70
2022-09-23T20:56:10.624Z,81.28
2022-09-23T20:58:44.703Z,80.30
2022-09-23T21:01:18.372Z,83.68
2022-09-23T21:03:54.028Z,74.20
2022-09-23T21:06:27.839Z,78.82
2022-09-23T21:09:01.365Z,78.65
2022-09-23T21:11:35.067Z,76.95
2022-09-23T21:14:08.792Z,75.65
2022-09-23T21:19:17.223Z,78.10
2022-09-23T21:21:50.750Z,84.38
2022-09-23T21:24:57.325Z,87.03
2022-09-23T21:27:17.950Z,77.37
2022-09-23T21:29:51.599Z,71.15
2022-09-23T21:32:25.197Z,76.15
2022-09-23T21:35:00.179Z,76.07
2022-09-23T21:37:33.907Z,74.00
2022-09-23T21:40:37.367Z,71.20
2022-09-23T21:43:10.903Z,84.90
2022-09-23T21:45:44.516Z,81.70
2022-09-23T21:48:18.077Z,81.57
2022-09-23T21:51:01.012Z,80.78
2022-09-23T21:53:36.471Z,83.35
2022-09-23T21:56:14.027Z,78.45
2022-09-23T21:58:51.363Z,80.50
2022-09-23T22:01:26.523Z,84.18
2022-09-23T22:04:05.308Z,77.05
2022-09-23T22:06:40.798Z,80.50
2022-09-23T22:09:16.308Z,84.13
2022-09-23T22:12:10.007Z,88.95
2022-09-23T22:14:43.588Z,100.72
2022-09-23T22:17:17.089Z,85.50
2022-09-23T22:19:51.424Z,83.90
2022-09-23T22:22:26.396Z,86.65
2022-09-23T22:25:00.044Z,84.00
2022-09-23T22:27:53.625Z,87.90
2022-09-23T22:30:44.722Z,83.10
2022-09-23T22:33:18.237Z,85.60
2022-09-23T22:35:52.254Z,80.55
2022-09-23T22:38:27.806Z,84.43
2022-09-23T22:41:01.400Z,71.22
2022-09-23T22:43:35.021Z,74.22
2022-09-23T22:46:09.509Z,74.25
2022-09-23T22:48:43.118Z,76.40
2022-09-23T22:51:16.585Z,71.45
2022-09-23T22:53:52.709Z,75.05
2022-09-23T22:56:26.253Z,63.35
2022-09-23T22:59:02.188Z,61.65
2022-09-23T23:01:36.699Z,56.60
2022-09-23T23:04:12.557Z,55.47
2022-09-23T23:06:46.209Z,67.63
2022-09-23T23:09:21.202Z,54.17
2022-09-23T23:11:54.806Z,58.15
2022-09-23T23:14:28.369Z,56.28
2022-09-23T23:17:01.859Z,55.80
2022-09-23T23:19:37.471Z,55.15
2022-09-23T23:22:11.030Z,48.83
2022-09-23T23:24:45.979Z,47.30
2022-09-23T23:27:19.608Z,48.35
2022-09-23T23:29:53.092Z,44.85
2022-09-23T23:32:26.639Z,41.88
2022-09-23T23:35:00.224Z,42.38
2022-09-23T23:37:33.757Z,36.42
2022-09-23T23:40:10.181Z,38.42
2022-09-23T23:42:43.673Z,41.80
2022-09-23T23:45:17.583Z,37.35
2022-09-23T23:47:51.150Z,35.45
2022-09-23T23:50:24.767Z,33.45
2022-09-23T23:52:59.698Z,34.83
2022-09-23T23:55:39.078Z,32.05
2022-09-23T23:58:12.601Z,32.47
